sensor_id;sensor_type;location;lat;lon;timestamp;pressure;altitude;pressure_sealevel;temperature;humidity
2294;BME280;1155;42.644;23.264;2023-04-03T00:01:44;60083.22;;;-140.67;100.00
2294;BME280;1155;42.644;23.264;2023-04-03T00:04:11;60052.50;;;-140.67;100.00
2294;BME280;1155;42.644;23.264;2023-04-03T00:06:38;60054.56;;;-140.67;100.00
2294;BME280;1155;42.644;23.264;2023-04-03T00:09:05;60068.88;;;-140.67;100.00
2294;BME280;1155;42.644;23.264;2023-04-03T00:11:31;60058.66;;;-140.67;100.00
2294;BME280;1155;42.644;23.264;2023-04-03T00:13:58;60046.38;;;-140.67;100.00
2294;BME280;1155;42.644;23.264;2023-04-03T00:16:27;60083.22;;;-140.67;100.00
2294;BME280;1155;42.644;23.264;2023-04-03T00:18:54;60060.69;;;-140.67;100.00
2294;BME280;1155;42.644;23.264;2023-04-03T00:21:20;60068.88;;;-140.67;100.00
2294;BME280;1155;42.644;23.264;2023-04-03T00:23:47;60081.19;;;-140.67;100.00
2294;BME280;1155;42.644;23.264;2023-04-03T00:26:14;60073.00;;;-140.67;100.00
2294;BME280;1155;42.644;23.264;2023-04-03T00:28:41;60054.56;;;-140.67;100.00
2294;BME280;1155;42.644;23.264;2023-04-03T00:31:08;60066.84;;;-140.67;100.00
2294;BME280;1155;42.644;23.264;2023-04-03T00:33:36;60077.09;;;-140.67;100.00
2294;BME280;1155;42.644;23.264;2023-04-03T00:36:07;60070.94;;;-140.67;100.00
2294;BME280;1155;42.644;23.264;2023-04-03T00:38:34;60068.88;;;-140.67;100.00
2294;BME280;1155;42.644;23.264;2023-04-03T00:41:01;60060.69;;;-140.67;100.00
2294;BME280;1155;42.644;23.264;2023-04-03T00:43:28;60068.88;;;-140.67;100.00
2294;BME280;1155;42.644;23.264;2023-04-03T00:45:58;60052.50;;;-140.67;100.00
2294;BME280;1155;42.644;23.264;2023-04-03T00:48:28;60079.13;;;-140.67;100.00
2294;BME280;1155;42.644;23.264;2023-04-03T00:50:57;60064.78;;;-140.67;100.00
2294;BME280;1155;42.644;23.264;2023-04-03T00:53:27;60079.13;;;-140.67;100.00
2294;BME280;1155;42.644;23.264;2023-04-03T00:55:56;60089.38;;;-140.67;100.00
2294;BME280;1155;42.644;23.264;2023-04-03T00:58:30;60062.75;;;-140.67;100.00
2294;BME280;1155;42.644;23.264;2023-04-03T01:01:04;60064.78;;;-140.67;100.00
2294;BME280;1155;42.644;23.264;2023-04-03T01:03:32;60089.38;;;-140.67;100.00
2294;BME280;1155;42.644;23.264;2023-04-03T01:06:00;60064.78;;;-140.67;100.00
2294;BME280;1155;42.644;23.264;2023-04-03T01:08:27;60101.66;;;-140.67;100.00
2294;BME280;1155;42.644;23.264;2023-04-03T01:10:55;60068.88;;;-140.67;100.00
2294;BME280;1155;42.644;23.264;2023-04-03T01:13:24;60081.19;;;-140.67;100.00
2294;BME280;1155;42.644;23.264;2023-04-03T01:15:52;60077.09;;;-140.67;100.00
2294;BME280;1155;42.644;23.264;2023-04-03T01:18:19;60060.69;;;-140.67;100.00
2294;BME280;1155;42.644;23.264;2023-04-03T01:24:07;60081.19;;;-140.67;100.00
2294;BME280;1155;42.644;23.264;2023-04-03T01:26:38;60036.13;;;-140.67;100.00
2294;BME280;1155;42.644;23.264;2023-04-03T01:29:05;60077.09;;;-140.67;100.00
2294;BME280;1155;42.644;23.264;2023-04-03T01:31:47;60077.09;;;-140.67;100.00
2294;BME280;1155;42.644;23.264;2023-04-03T01:34:15;60046.38;;;-140.67;100.00
2294;BME280;1155;42.644;23.264;2023-04-03T01:36:42;60077.09;;;-140.67;100.00
2294;BME280;1155;42.644;23.264;2023-04-03T01:39:09;60081.19;;;-140.67;100.00
2294;BME280;1155;42.644;23.264;2023-04-03T01:41:36;60064.78;;;-140.67;100.00
2294;BME280;1155;42.644;23.264;2023-04-03T01:44:04;60089.38;;;-140.67;100.00
2294;BME280;1155;42.644;23.264;2023-04-03T01:46:31;60060.69;;;-140.67;100.00
2294;BME280;1155;42.644;23.264;2023-04-03T01:49:01;60058.66;;;-140.67;100.00
2294;BME280;1155;42.644;23.264;2023-04-03T01:51:27;60068.88;;;-140.67;100.00
2294;BME280;1155;42.644;23.264;2023-04-03T01:53:54;60087.31;;;-140.67;100.00
2294;BME280;1155;42.644;23.264;2023-04-03T01:56:21;60073.00;;;-140.67;100.00
2294;BME280;1155;42.644;23.264;2023-04-03T01:58:48;60046.38;;;-140.67;100.00
2294;BME280;1155;42.644;23.264;2023-04-03T02:01:15;60060.69;;;-140.67;100.00
2294;BME280;1155;42.644;23.264;2023-04-03T02:03:42;60056.59;;;-140.67;100.00
2294;BME280;1155;42.644;23.264;2023-04-03T02:06:10;60046.38;;;-140.67;100.00
2294;BME280;1155;42.644;23.264;2023-04-03T02:08:37;60077.09;;;-140.67;100.00
2294;BME280;1155;42.644;23.264;2023-04-03T02:11:04;60068.88;;;-140.67;100.00
2294;BME280;1155;42.644;23.264;2023-04-03T02:13:31;60081.19;;;-140.67;100.00
2294;BME280;1155;42.644;23.264;2023-04-03T02:15:58;60058.66;;;-140.67;100.00
2294;BME280;1155;42.644;23.264;2023-04-03T02:18:25;60101.66;;;-140.67;100.00
2294;BME280;1155;42.644;23.264;2023-04-03T02:20:52;60060.69;;;-140.67;100.00
2294;BME280;1155;42.644;23.264;2023-04-03T02:23:21;60077.09;;;-140.67;100.00
2294;BME280;1155;42.644;23.264;2023-04-03T02:25:48;60099.59;;;-140.67;100.00
2294;BME280;1155;42.644;23.264;2023-04-03T02:28:17;60064.78;;;-140.67;100.00
2294;BME280;1155;42.644;23.264;2023-04-03T02:30:44;60056.59;;;-140.67;100.00
2294;BME280;1155;42.644;23.264;2023-04-03T02:33:10;60089.38;;;-140.67;100.00
2294;BME280;1155;42.644;23.264;2023-04-03T02:35:38;60052.50;;;-140.67;100.00
2294;BME280;1155;42.644;23.264;2023-04-03T02:38:05;60070.94;;;-140.67;100.00
2294;BME280;1155;42.644;23.264;2023-04-03T02:40:33;60056.59;;;-140.67;100.00
2294;BME280;1155;42.644;23.264;2023-04-03T02:43:00;60044.31;;;-140.67;100.00
2294;BME280;1155;42.644;23.264;2023-04-03T02:45:27;60040.22;;;-140.67;100.00
2294;BME280;1155;42.644;23.264;2023-04-03T02:47:54;60064.78;;;-140.67;100.00
2294;BME280;1155;42.644;23.264;2023-04-03T02:50:20;60073.00;;;-140.67;100.00
2294;BME280;1155;42.644;23.264;2023-04-03T02:52:47;60048.41;;;-140.67;100.00
2294;BME280;1155;42.644;23.264;2023-04-03T02:55:14;60087.31;;;-140.67;100.00
2294;BME280;1155;42.644;23.264;2023-04-03T02:57:43;60073.00;;;-140.67;100.00
2294;BME280;1155;42.644;23.264;2023-04-03T03:00:10;60064.78;;;-140.67;100.00
2294;BME280;1155;42.644;23.264;2023-04-03T03:02:38;60077.09;;;-140.67;100.00
2294;BME280;1155;42.644;23.264;2023-04-03T03:05:05;60073.00;;;-140.67;100.00
2294;BME280;1155;42.644;23.264;2023-04-03T03:07:32;60073.00;;;-140.67;100.00
2294;BME280;1155;42.644;23.264;2023-04-03T03:09:59;60073.00;;;-140.67;100.00
2294;BME280;1155;42.644;23.264;2023-04-03T03:12:26;60062.75;;;-140.67;100.00
2294;BME280;1155;42.644;23.264;2023-04-03T03:14:55;60064.78;;;-140.67;100.00
2294;BME280;1155;42.644;23.264;2023-04-03T03:17:21;60089.38;;;-140.67;100.00
2294;BME280;1155;42.644;23.264;2023-04-03T03:19:48;60089.38;;;-140.67;100.00
2294;BME280;1155;42.644;23.264;2023-04-03T03:22:16;60077.09;;;-140.67;100.00
2294;BME280;1155;42.644;23.264;2023-04-03T03:24:43;60075.03;;;-140.67;100.00
2294;BME280;1155;42.644;23.264;2023-04-03T03:27:09;60064.78;;;-140.67;100.00
2294;BME280;1155;42.644;23.264;2023-04-03T03:29:37;60081.19;;;-140.67;100.00
2294;BME280;1155;42.644;23.264;2023-04-03T03:32:05;60068.88;;;-140.67;100.00
2294;BME280;1155;42.644;23.264;2023-04-03T03:34:32;60077.09;;;-140.67;100.00
2294;BME280;1155;42.644;23.264;2023-04-03T03:36:59;60083.22;;;-140.67;100.00
2294;BME280;1155;42.644;23.264;2023-04-03T03:39:26;60081.19;;;-140.67;100.00
2294;BME280;1155;42.644;23.264;2023-04-03T03:41:53;60081.19;;;-140.67;100.00
2294;BME280;1155;42.644;23.264;2023-04-03T03:44:20;60064.78;;;-140.67;100.00
2294;BME280;1155;42.644;23.264;2023-04-03T03:46:47;60070.94;;;-140.67;100.00
2294;BME280;1155;42.644;23.264;2023-04-03T03:49:15;60068.88;;;-140.67;100.00
2294;BME280;1155;42.644;23.264;2023-04-03T03:51:42;60087.31;;;-140.67;100.00
2294;BME280;1155;42.644;23.264;2023-04-03T03:54:09;60081.19;;;-140.67;100.00
2294;BME280;1155;42.644;23.264;2023-04-03T03:56:36;60073.00;;;-140.67;100.00
2294;BME280;1155;42.644;23.264;2023-04-03T03:59:03;60064.78;;;-140.67;100.00
2294;BME280;1155;42.644;23.264;2023-04-03T04:01:30;60073.00;;;-140.67;100.00
2294;BME280;1155;42.644;23.264;2023-04-03T04:03:59;60056.59;;;-140.67;100.00
2294;BME280;1155;42.644;23.264;2023-04-03T04:06:27;60093.47;;;-140.67;100.00
2294;BME280;1155;42.644;23.264;2023-04-03T04:08:54;60083.22;;;-140.67;100.00
2294;BME280;1155;42.644;23.264;2023-04-03T04:11:23;60077.09;;;-140.67;100.00
2294;BME280;1155;42.644;23.264;2023-04-03T04:13:50;60079.13;;;-140.67;100.00
2294;BME280;1155;42.644;23.264;2023-04-03T04:16:20;60068.88;;;-140.67;100.00
2294;BME280;1155;42.644;23.264;2023-04-03T04:18:46;60068.88;;;-140.67;100.00
2294;BME280;1155;42.644;23.264;2023-04-03T04:21:13;60085.28;;;-140.67;100.00
2294;BME280;1155;42.644;23.264;2023-04-03T04:23:41;60087.31;;;-140.67;100.00
2294;BME280;1155;42.644;23.264;2023-04-03T04:26:08;60093.47;;;-140.67;100.00
2294;BME280;1155;42.644;23.264;2023-04-03T04:28:35;60085.28;;;-140.67;100.00
2294;BME280;1155;42.644;23.264;2023-04-03T04:31:02;60070.94;;;-140.67;100.00
2294;BME280;1155;42.644;23.264;2023-04-03T04:33:29;60068.88;;;-140.67;100.00
2294;BME280;1155;42.644;23.264;2023-04-03T04:35:59;60079.13;;;-140.67;100.00
2294;BME280;1155;42.644;23.264;2023-04-03T04:38:26;60118.03;;;-140.67;100.00
2294;BME280;1155;42.644;23.264;2023-04-03T04:40:54;60064.78;;;-140.67;100.00
2294;BME280;1155;42.644;23.264;2023-04-03T04:43:21;60060.69;;;-140.67;100.00
2294;BME280;1155;42.644;23.264;2023-04-03T04:45:48;60085.28;;;-140.67;100.00
2294;BME280;1155;42.644;23.264;2023-04-03T04:48:15;60093.47;;;-140.67;100.00
2294;BME280;1155;42.644;23.264;2023-04-03T04:50:42;60089.38;;;-140.67;100.00
2294;BME280;1155;42.644;23.264;2023-04-03T04:53:09;60085.28;;;-140.67;100.00
2294;BME280;1155;42.644;23.264;2023-04-03T04:55:35;60056.59;;;-140.67;100.00
2294;BME280;1155;42.644;23.264;2023-04-03T04:58:04;60081.19;;;-140.67;100.00
2294;BME280;1155;42.644;23.264;2023-04-03T05:00:31;60052.50;;;-140.67;100.00
2294;BME280;1155;42.644;23.264;2023-04-03T05:02:57;60077.09;;;-140.67;100.00
2294;BME280;1155;42.644;23.264;2023-04-03T05:05:24;60073.00;;;-140.67;100.00
2294;BME280;1155;42.644;23.264;2023-04-03T05:07:51;60097.56;;;-140.67;100.00
2294;BME280;1155;42.644;23.264;2023-04-03T05:10:18;60052.50;;;-140.67;100.00
2294;BME280;1155;42.644;23.264;2023-04-03T05:12:45;60093.47;;;-140.67;100.00
2294;BME280;1155;42.644;23.264;2023-04-03T05:15:14;60089.38;;;-140.67;100.00
2294;BME280;1155;42.644;23.264;2023-04-03T05:17:41;60081.19;;;-140.67;100.00
2294;BME280;1155;42.644;23.264;2023-04-03T05:20:08;60064.78;;;-140.67;100.00
2294;BME280;1155;42.644;23.264;2023-04-03T05:22:35;60097.56;;;-140.67;100.00
2294;BME280;1155;42.644;23.264;2023-04-03T05:25:02;60085.28;;;-140.67;100.00
2294;BME280;1155;42.644;23.264;2023-04-03T05:27:29;60075.03;;;-140.67;100.00
2294;BME280;1155;42.644;23.264;2023-04-03T05:29:56;60056.59;;;-140.67;100.00
2294;BME280;1155;42.644;23.264;2023-04-03T05:32:26;60073.00;;;-140.67;100.00
2294;BME280;1155;42.644;23.264;2023-04-03T05:34:53;60083.22;;;-140.67;100.00
2294;BME280;1155;42.644;23.264;2023-04-03T05:37:20;60081.19;;;-140.67;100.00
2294;BME280;1155;42.644;23.264;2023-04-03T05:39:47;60054.56;;;-140.67;100.00
2294;BME280;1155;42.644;23.264;2023-04-03T05:42:14;60091.41;;;-140.67;100.00
2294;BME280;1155;42.644;23.264;2023-04-03T05:44:41;60073.00;;;-140.67;100.00
2294;BME280;1155;42.644;23.264;2023-04-03T05:47:08;60081.19;;;-140.67;100.00
2294;BME280;1155;42.644;23.264;2023-04-03T05:49:37;60093.47;;;-140.67;100.00
2294;BME280;1155;42.644;23.264;2023-04-03T05:52:06;60097.56;;;-140.67;100.00
2294;BME280;1155;42.644;23.264;2023-04-03T05:54:33;60073.00;;;-140.67;100.00
2294;BME280;1155;42.644;23.264;2023-04-03T05:57:00;60068.88;;;-140.67;100.00
2294;BME280;1155;42.644;23.264;2023-04-03T05:59:26;60089.38;;;-140.67;100.00
2294;BME280;1155;42.644;23.264;2023-04-03T06:01:53;60105.75;;;-140.67;100.00
2294;BME280;1155;42.644;23.264;2023-04-03T06:04:20;60079.13;;;-140.67;100.00
2294;BME280;1155;42.644;23.264;2023-04-03T06:06:50;60066.84;;;-140.67;100.00
2294;BME280;1155;42.644;23.264;2023-04-03T06:09:18;60081.19;;;-140.67;100.00
2294;BME280;1155;42.644;23.264;2023-04-03T06:11:50;60081.19;;;-140.67;100.00
2294;BME280;1155;42.644;23.264;2023-04-03T06:14:19;60097.56;;;-140.67;100.00
2294;BME280;1155;42.644;23.264;2023-04-03T06:16:46;60070.94;;;-140.67;100.00
2294;BME280;1155;42.644;23.264;2023-04-03T06:19:27;60064.78;;;-140.67;100.00
2294;BME280;1155;42.644;23.264;2023-04-03T06:21:58;60093.47;;;-140.67;100.00
2294;BME280;1155;42.644;23.264;2023-04-03T06:24:25;60064.78;;;-140.67;100.00
2294;BME280;1155;42.644;23.264;2023-04-03T06:26:52;60083.22;;;-140.67;100.00
2294;BME280;1155;42.644;23.264;2023-04-03T06:29:19;60064.78;;;-140.67;100.00
2294;BME280;1155;42.644;23.264;2023-04-03T06:31:47;60089.38;;;-140.67;100.00
2294;BME280;1155;42.644;23.264;2023-04-03T06:34:14;60077.09;;;-140.67;100.00
2294;BME280;1155;42.644;23.264;2023-04-03T06:36:42;60075.03;;;-140.67;100.00
2294;BME280;1155;42.644;23.264;2023-04-03T06:39:14;60093.47;;;-140.67;100.00
2294;BME280;1155;42.644;23.264;2023-04-03T06:41:42;60081.19;;;-140.67;99.76
2294;BME280;1155;42.644;23.264;2023-04-03T06:44:08;60073.00;;;-140.67;94.88
2294;BME280;1155;42.644;23.264;2023-04-03T06:46:37;60081.19;;;-140.67;100.00
2294;BME280;1155;42.644;23.264;2023-04-03T06:49:04;60089.38;;;-140.67;100.00
2294;BME280;1155;42.644;23.264;2023-04-03T06:51:33;60097.56;;;-140.67;97.93
2294;BME280;1155;42.644;23.264;2023-04-03T06:54:00;60079.13;;;-140.67;100.00
2294;BME280;1155;42.644;23.264;2023-04-03T06:56:29;60089.38;;;-140.67;100.00
2294;BME280;1155;42.644;23.264;2023-04-03T06:58:56;60097.56;;;-140.67;100.00
2294;BME280;1155;42.644;23.264;2023-04-03T07:01:27;60062.75;;;-140.67;92.13
2294;BME280;1155;42.644;23.264;2023-04-03T07:03:55;60070.94;;;-140.67;97.87
2294;BME280;1155;42.644;23.264;2023-04-03T07:06:22;60103.69;;;-140.67;93.66
2294;BME280;1155;42.644;23.264;2023-04-03T07:08:51;60075.03;;;-140.67;89.46
2294;BME280;1155;42.644;23.264;2023-04-03T07:11:18;60085.28;;;-140.67;78.44
2294;BME280;1155;42.644;23.264;2023-04-03T07:13:47;60070.94;;;-140.67;81.32
2294;BME280;1155;42.644;23.264;2023-04-03T07:16:14;60085.28;;;-140.67;84.05
2294;BME280;1155;42.644;23.264;2023-04-03T07:18:41;60101.66;;;-140.67;88.46
2294;BME280;1155;42.644;23.264;2023-04-03T07:21:08;60105.75;;;-140.67;90.48
2294;BME280;1155;42.644;23.264;2023-04-03T07:23:34;60073.00;;;-140.67;89.01
2294;BME280;1155;42.644;23.264;2023-04-03T07:26:02;60105.75;;;-140.67;84.89
2294;BME280;1155;42.644;23.264;2023-04-03T07:28:29;60077.09;;;-140.67;88.75
2294;BME280;1155;42.644;23.264;2023-04-03T07:31:02;60068.88;;;-140.67;79.68
2294;BME280;1155;42.644;23.264;2023-04-03T07:33:29;60056.59;;;-140.67;72.12
2294;BME280;1155;42.644;23.264;2023-04-03T07:36:06;60097.56;;;-140.67;80.68
2294;BME280;1155;42.644;23.264;2023-04-03T07:38:37;60081.19;;;-140.67;72.47
2294;BME280;1155;42.644;23.264;2023-04-03T07:41:05;60118.03;;;-140.67;68.01
2294;BME280;1155;42.644;23.264;2023-04-03T07:43:32;60095.50;;;-140.67;66.08
2294;BME280;1155;42.644;23.264;2023-04-03T07:46:01;60052.50;;;-140.67;70.30
2294;BME280;1155;42.644;23.264;2023-04-03T07:48:28;60066.84;;;-140.67;72.00
2294;BME280;1155;42.644;23.264;2023-04-03T07:50:59;60083.22;;;-140.67;65.11
2294;BME280;1155;42.644;23.264;2023-04-03T07:53:26;60081.19;;;-140.67;61.40
2294;BME280;1155;42.644;23.264;2023-04-03T07:55:53;60089.38;;;-140.67;58.98
2294;BME280;1155;42.644;23.264;2023-04-03T07:58:22;60095.50;;;-140.67;56.82
2294;BME280;1155;42.644;23.264;2023-04-03T08:00:49;60087.31;;;-140.67;61.27
2294;BME280;1155;42.644;23.264;2023-04-03T08:03:30;60060.69;;;-140.67;62.03
2294;BME280;1155;42.644;23.264;2023-04-03T08:06:01;60052.50;;;-140.67;66.90
2294;BME280;1155;42.644;23.264;2023-04-03T08:08:29;60087.31;;;-140.67;54.86
2294;BME280;1155;42.644;23.264;2023-04-03T08:10:59;60073.00;;;-140.67;57.35
2294;BME280;1155;42.644;23.264;2023-04-03T08:13:27;60079.13;;;-140.67;53.25
2294;BME280;1155;42.644;23.264;2023-04-03T08:15:55;60056.59;;;-140.67;56.24
2294;BME280;1155;42.644;23.264;2023-04-03T08:18:22;60077.09;;;-140.67;55.04
2294;BME280;1155;42.644;23.264;2023-04-03T08:20:51;60093.47;;;-140.67;52.81
2294;BME280;1155;42.644;23.264;2023-04-03T08:23:18;60062.75;;;-140.67;54.68
2294;BME280;1155;42.644;23.264;2023-04-03T08:25:45;60073.00;;;-140.67;57.35
2294;BME280;1155;42.644;23.264;2023-04-03T08:28:12;60079.13;;;-140.67;54.20
2294;BME280;1155;42.644;23.264;2023-04-03T08:30:40;60077.09;;;-140.67;54.94
2294;BME280;1155;42.644;23.264;2023-04-03T08:33:08;60075.03;;;-140.67;55.47
2294;BME280;1155;42.644;23.264;2023-04-03T08:35:38;60097.56;;;-140.67;53.94
2294;BME280;1155;42.644;23.264;2023-04-03T08:38:07;60081.19;;;-140.67;56.91
2294;BME280;1155;42.644;23.264;2023-04-03T08:40:34;60068.88;;;-140.67;54.87
2294;BME280;1155;42.644;23.264;2023-04-03T08:43:19;60064.78;;;-140.67;59.27
2294;BME280;1155;42.644;23.264;2023-04-03T08:45:53;60085.28;;;-140.67;67.48
2294;BME280;1155;42.644;23.264;2023-04-03T08:48:25;60064.78;;;-140.67;55.41
2294;BME280;1155;42.644;23.264;2023-04-03T08:50:57;60075.03;;;-140.67;57.02
2294;BME280;1155;42.644;23.264;2023-04-03T08:53:29;60073.00;;;-140.67;62.18
2294;BME280;1155;42.644;23.264;2023-04-03T08:55:58;60081.19;;;-140.67;60.38
2294;BME280;1155;42.644;23.264;2023-04-03T08:58:27;60077.09;;;-140.67;53.89
2294;BME280;1155;42.644;23.264;2023-04-03T09:00:58;60085.28;;;-140.67;53.43
2294;BME280;1155;42.644;23.264;2023-04-03T09:03:29;60087.31;;;-140.67;47.96
2294;BME280;1155;42.644;23.264;2023-04-03T09:06:00;60068.88;;;-140.67;51.68
2294;BME280;1155;42.644;23.264;2023-04-03T09:08:33;60085.28;;;-140.67;51.73
2294;BME280;1155;42.644;23.264;2023-04-03T09:11:11;60085.28;;;-140.67;51.82
2294;BME280;1155;42.644;23.264;2023-04-03T09:13:46;60075.03;;;-140.67;54.18
2294;BME280;1155;42.644;23.264;2023-04-03T09:16:21;60095.50;;;-140.67;51.28
2294;BME280;1155;42.644;23.264;2023-04-03T09:18:57;60091.41;;;-140.67;49.85
2294;BME280;1155;42.644;23.264;2023-04-03T09:21:32;60093.47;;;-140.67;51.12
2294;BME280;1155;42.644;23.264;2023-04-03T09:24:04;60111.91;;;-140.67;48.72
2294;BME280;1155;42.644;23.264;2023-04-03T09:26:37;60105.75;;;-140.67;48.96
2294;BME280;1155;42.644;23.264;2023-04-03T09:29:07;60064.78;;;-140.67;47.04
2294;BME280;1155;42.644;23.264;2023-04-03T09:31:37;60089.38;;;-140.67;43.39
2294;BME280;1155;42.644;23.264;2023-04-03T09:34:08;60111.91;;;-140.67;41.17
2294;BME280;1155;42.644;23.264;2023-04-03T09:36:41;60113.94;;;-140.67;40.46
2294;BME280;1155;42.644;23.264;2023-04-03T09:39:13;60075.03;;;-140.67;37.08
2294;BME280;1155;42.644;23.264;2023-04-03T09:41:41;60093.47;;;-140.67;37.21
2294;BME280;1155;42.644;23.264;2023-04-03T09:44:21;60073.00;;;-140.67;36.36
2294;BME280;1155;42.644;23.264;2023-04-03T09:46:48;60087.31;;;-140.67;36.20
2294;BME280;1155;42.644;23.264;2023-04-03T09:49:15;60091.41;;;-140.67;35.90
2294;BME280;1155;42.644;23.264;2023-04-03T09:51:42;60105.75;;;-140.67;34.39
2294;BME280;1155;42.644;23.264;2023-04-03T09:54:41;60091.41;;;-140.67;35.10
2294;BME280;1155;42.644;23.264;2023-04-03T09:57:10;60089.38;;;-140.67;36.84
2294;BME280;1155;42.644;23.264;2023-04-03T09:59:45;60103.69;;;-140.67;34.49
2294;BME280;1155;42.644;23.264;2023-04-03T10:02:35;60073.00;;;-140.67;34.16
2294;BME280;1155;42.644;23.264;2023-04-03T10:05:03;60068.88;;;-140.67;34.25
2294;BME280;1155;42.644;23.264;2023-04-03T10:07:33;60089.38;;;-140.67;34.67
2294;BME280;1155;42.644;23.264;2023-04-03T10:10:16;60097.56;;;-140.67;35.94
2294;BME280;1155;42.644;23.264;2023-04-03T10:12:43;60097.56;;;-140.67;36.11
2294;BME280;1155;42.644;23.264;2023-04-03T10:15:12;60085.28;;;-140.67;36.69
2294;BME280;1155;42.644;23.264;2023-04-03T10:17:49;60105.75;;;-140.67;38.09
2294;BME280;1155;42.644;23.264;2023-04-03T10:20:29;60089.38;;;-140.67;36.32
2294;BME280;1155;42.644;23.264;2023-04-03T10:23:10;60101.66;;;-140.67;36.74
2294;BME280;1155;42.644;23.264;2023-04-03T10:25:43;60073.00;;;-140.67;36.61
2294;BME280;1155;42.644;23.264;2023-04-03T10:28:16;60095.50;;;-140.67;37.67
2294;BME280;1155;42.644;23.264;2023-04-03T10:30:50;60097.56;;;-140.67;37.47
2294;BME280;1155;42.644;23.264;2023-04-03T10:33:43;60091.41;;;-140.67;37.70
2294;BME280;1155;42.644;23.264;2023-04-03T10:36:19;60081.19;;;-140.67;37.39
2294;BME280;1155;42.644;23.264;2023-04-03T10:38:55;60075.03;;;-140.67;38.09
2294;BME280;1155;42.644;23.264;2023-04-03T10:41:31;60095.50;;;-140.67;38.25
2294;BME280;1155;42.644;23.264;2023-04-03T10:44:13;60109.84;;;-140.67;39.20
2294;BME280;1155;42.644;23.264;2023-04-03T10:46:44;60093.47;;;-140.67;38.51
2294;BME280;1155;42.644;23.264;2023-04-03T10:49:25;60062.75;;;-140.67;40.15
2294;BME280;1155;42.644;23.264;2023-04-03T10:52:00;60056.59;;;-140.67;40.93
2294;BME280;1155;42.644;23.264;2023-04-03T10:54:35;60085.28;;;-140.67;40.73
2294;BME280;1155;42.644;23.264;2023-04-03T10:57:06;60070.94;;;-140.67;43.08
2294;BME280;1155;42.644;23.264;2023-04-03T10:59:37;60097.56;;;-140.67;44.08
2294;BME280;1155;42.644;23.264;2023-04-03T11:02:07;60081.19;;;-140.67;45.26
2294;BME280;1155;42.644;23.264;2023-04-03T11:04:40;60081.19;;;-140.67;46.60
2294;BME280;1155;42.644;23.264;2023-04-03T11:07:12;60062.75;;;-140.67;48.10
2294;BME280;1155;42.644;23.264;2023-04-03T11:09:43;60105.75;;;-140.67;52.20
2294;BME280;1155;42.644;23.264;2023-04-03T11:12:18;60064.78;;;-140.67;58.48
2294;BME280;1155;42.644;23.264;2023-04-03T11:14:48;60085.28;;;-140.67;60.17
2294;BME280;1155;42.644;23.264;2023-04-03T11:17:24;60073.00;;;-140.67;71.38
2294;BME280;1155;42.644;23.264;2023-04-03T11:20:00;60060.69;;;-140.67;82.18
2294;BME280;1155;42.644;23.264;2023-04-03T11:22:31;60077.09;;;-140.67;82.36
2294;BME280;1155;42.644;23.264;2023-04-03T11:25:04;60073.00;;;-140.67;96.85
2294;BME280;1155;42.644;23.264;2023-04-03T11:27:38;60068.88;;;-140.67;100.00
2294;BME280;1155;42.644;23.264;2023-04-03T11:30:11;60093.47;;;-140.67;100.00
2294;BME280;1155;42.644;23.264;2023-04-03T11:33:13;60085.28;;;-140.67;100.00
2294;BME280;1155;42.644;23.264;2023-04-03T11:35:48;60085.28;;;-140.67;100.00
2294;BME280;1155;42.644;23.264;2023-04-03T11:38:21;60077.09;;;-140.67;100.00
2294;BME280;1155;42.644;23.264;2023-04-03T11:40:50;60079.13;;;-140.67;100.00
2294;BME280;1155;42.644;23.264;2023-04-03T11:43:24;60093.47;;;-140.67;100.00
2294;BME280;1155;42.644;23.264;2023-04-03T11:45:56;60056.59;;;-140.67;100.00
2294;BME280;1155;42.644;23.264;2023-04-03T11:48:47;60097.56;;;-140.67;100.00
2294;BME280;1155;42.644;23.264;2023-04-03T11:54:44;60085.28;;;-140.67;100.00
2294;BME280;1155;42.644;23.264;2023-04-03T11:57:43;60095.50;;;-140.67;100.00
2294;BME280;1155;42.644;23.264;2023-04-03T12:04:08;60085.28;;;-140.67;100.00
2294;BME280;1155;42.644;23.264;2023-04-03T12:10:02;60073.00;;;-140.67;100.00
2294;BME280;1155;42.644;23.264;2023-04-03T12:12:35;60091.41;;;-140.67;100.00
2294;BME280;1155;42.644;23.264;2023-04-03T12:15:19;60089.38;;;-140.67;100.00
2294;BME280;1155;42.644;23.264;2023-04-03T12:17:48;60087.31;;;-140.67;100.00
2294;BME280;1155;42.644;23.264;2023-04-03T12:20:56;60105.75;;;-140.67;100.00
2294;BME280;1155;42.644;23.264;2023-04-03T12:23:25;60095.50;;;-140.67;100.00
2294;BME280;1155;42.644;23.264;2023-04-03T12:26:00;60081.19;;;-140.67;100.00
2294;BME280;1155;42.644;23.264;2023-04-03T12:28:29;60095.50;;;-140.67;100.00
2294;BME280;1155;42.644;23.264;2023-04-03T12:31:01;60101.66;;;-140.67;100.00
2294;BME280;1155;42.644;23.264;2023-04-03T12:33:38;60109.84;;;-140.67;100.00
2294;BME280;1155;42.644;23.264;2023-04-03T12:36:17;60101.66;;;-140.67;100.00
2294;BME280;1155;42.644;23.264;2023-04-03T12:39:10;60097.56;;;-140.67;100.00
2294;BME280;1155;42.644;23.264;2023-04-03T12:41:51;60116.00;;;-140.67;100.00
2294;BME280;1155;42.644;23.264;2023-04-03T12:44:45;60101.66;;;-140.67;100.00
2294;BME280;1155;42.644;23.264;2023-04-03T12:47:28;60089.38;;;-140.67;100.00
2294;BME280;1155;42.644;23.264;2023-04-03T12:49:59;60089.38;;;-140.67;100.00
2294;BME280;1155;42.644;23.264;2023-04-03T12:52:36;60077.09;;;-140.67;100.00
2294;BME280;1155;42.644;23.264;2023-04-03T12:55:14;60073.00;;;-140.67;100.00
2294;BME280;1155;42.644;23.264;2023-04-03T12:57:41;60093.47;;;-140.67;100.00
2294;BME280;1155;42.644;23.264;2023-04-03T13:00:27;60085.28;;;-140.67;100.00
2294;BME280;1155;42.644;23.264;2023-04-03T13:02:54;60087.31;;;-140.67;100.00
2294;BME280;1155;42.644;23.264;2023-04-03T13:05:22;60062.75;;;-140.67;100.00
2294;BME280;1155;42.644;23.264;2023-04-03T13:07:54;60081.19;;;-140.67;100.00
2294;BME280;1155;42.644;23.264;2023-04-03T13:10:23;60113.94;;;-140.67;100.00
2294;BME280;1155;42.644;23.264;2023-04-03T13:12:52;60128.28;;;-140.67;100.00